createdAt,value
2022-12-03T00:02:14.577Z,87.55
2022-12-03T00:04:37.034Z,77.05
2022-12-03T00:06:59.321Z,81.30
2022-12-03T00:09:21.620Z,87.03
2022-12-03T00:11:43.915Z,75.53
2022-12-03T00:14:06.211Z,86.15
2022-12-03T00:16:28.622Z,81.28
2022-12-03T00:18:50.978Z,91.25
2022-12-03T00:21:13.241Z,86.25
2022-12-03T00:23:41.568Z,89.88
2022-12-03T00:26:04.543Z,75.07
2022-12-03T00:28:26.892Z,83.00
2022-12-03T00:30:49.592Z,87.25
2022-12-03T00:33:11.915Z,89.32
2022-12-03T00:35:34.351Z,90.80
2022-12-03T00:37:56.694Z,85.75
2022-12-03T00:40:18.960Z,82.15
2022-12-03T00:42:41.387Z,85.20
2022-12-03T00:45:04.037Z,87.35
2022-12-03T00:47:26.316Z,95.20
2022-12-03T00:49:48.651Z,87.13
2022-12-03T00:52:10.909Z,80.63
2022-12-03T00:54:33.300Z,78.97
2022-12-03T00:56:55.626Z,81.03
2022-12-03T00:59:17.928Z,80.60
2022-12-03T01:01:40.306Z,86.13
2022-12-03T01:04:02.709Z,89.13
2022-12-03T01:06:25.014Z,88.03
2022-12-03T01:08:47.317Z,79.22
2022-12-03T01:11:29.560Z,84.32
2022-12-03T01:13:51.922Z,95.10
2022-12-03T01:16:14.332Z,84.28
2022-12-03T01:18:36.681Z,86.82
2022-12-03T01:20:58.953Z,94.47
2022-12-03T01:23:21.250Z,81.65
2022-12-03T01:25:43.564Z,81.70
2022-12-03T01:28:05.857Z,78.65
2022-12-03T01:30:28.142Z,70.28
2022-12-03T01:32:50.433Z,79.22
2022-12-03T01:35:12.738Z,85.15
2022-12-03T01:37:35.075Z,82.78
2022-12-03T01:39:57.362Z,72.35
2022-12-03T01:42:36.955Z,73.10
2022-12-03T01:44:59.409Z,79.10
2022-12-03T01:47:26.191Z,90.13
2022-12-03T01:49:54.046Z,83.30
2022-12-03T01:52:18.733Z,81.72
2022-12-03T01:54:46.191Z,77.25
2022-12-03T01:57:25.511Z,86.03
2022-12-03T01:59:47.865Z,84.90
2022-12-03T02:02:17.583Z,90.65
2022-12-03T02:04:40.035Z,71.65
2022-12-03T02:07:19.731Z,69.43
2022-12-03T02:09:42.052Z,83.43
2022-12-03T02:12:04.678Z,75.97
2022-12-03T02:14:26.988Z,82.97
2022-12-03T02:16:49.306Z,82.10
2022-12-03T02:19:22.719Z,75.85
2022-12-03T02:24:52.927Z,73.13
2022-12-03T02:27:15.379Z,75.72
2022-12-03T02:29:37.674Z,75.38
2022-12-03T02:32:00.052Z,82.40
2022-12-03T02:34:40.832Z,80.53
2022-12-03T02:37:03.272Z,76.75
2022-12-03T02:39:25.576Z,78.40
2022-12-03T02:42:06.608Z,80.03
2022-12-03T02:44:28.946Z,73.32
2022-12-03T02:46:51.344Z,80.03
2022-12-03T02:49:13.712Z,76.22
2022-12-03T02:51:36.333Z,77.90
2022-12-03T02:53:58.640Z,72.40
2022-12-03T02:56:23.851Z,74.72
2022-12-03T02:58:47.557Z,77.80
2022-12-03T03:01:09.968Z,74.45
2022-12-03T03:03:32.492Z,71.93
2022-12-03T03:05:56.801Z,76.03
2022-12-03T03:08:19.203Z,67.53
2022-12-03T03:10:41.589Z,81.35
2022-12-03T03:13:06.999Z,68.50
2022-12-03T03:15:29.285Z,71.55
2022-12-03T03:17:51.844Z,68.45
2022-12-03T03:20:14.515Z,72.72
2022-12-03T03:22:40.041Z,72.05
2022-12-03T03:25:02.771Z,76.25
2022-12-03T03:27:25.073Z,75.38
2022-12-03T03:29:47.378Z,67.30
2022-12-03T03:32:09.849Z,65.40
2022-12-03T03:34:32.855Z,69.22
2022-12-03T03:36:55.151Z,75.75
2022-12-03T03:39:17.488Z,71.38
2022-12-03T03:41:39.765Z,68.68
2022-12-03T03:44:02.204Z,74.18
2022-12-03T03:46:24.582Z,67.72
2022-12-03T03:48:48.352Z,68.95
2022-12-03T03:51:10.873Z,74.20
2022-12-03T03:53:33.157Z,72.95
2022-12-03T03:55:55.520Z,68.65
2022-12-03T03:58:17.866Z,65.25
2022-12-03T04:00:40.242Z,68.85
2022-12-03T04:03:04.785Z,74.43
2022-12-03T04:05:27.088Z,72.25
2022-12-03T04:07:49.486Z,70.80
2022-12-03T04:10:30.526Z,67.53
2022-12-03T04:12:55.704Z,69.82
2022-12-03T04:15:17.980Z,72.60
2022-12-03T04:17:40.270Z,71.72
2022-12-03T04:20:02.561Z,69.22
2022-12-03T04:22:40.090Z,69.95
2022-12-03T04:25:21.202Z,74.15
2022-12-03T04:28:02.868Z,67.97
2022-12-03T04:30:25.276Z,66.40
2022-12-03T04:33:06.412Z,76.40
2022-12-03T04:35:44.195Z,66.88
2022-12-03T04:38:06.556Z,74.32
2022-12-03T04:40:47.450Z,75.95
2022-12-03T04:43:09.816Z,72.85
2022-12-03T04:45:32.318Z,73.13
2022-12-03T04:47:54.667Z,78.35
2022-12-03T04:50:17.028Z,69.30
2022-12-03T04:52:39.363Z,75.25
2022-12-03T04:55:01.661Z,74.90
2022-12-03T04:57:24.059Z,75.68
2022-12-03T04:59:46.360Z,80.85
2022-12-03T05:02:11.134Z,84.45
2022-12-03T05:04:34.700Z,78.80
2022-12-03T05:06:57.018Z,78.90
2022-12-03T05:09:19.424Z,80.50
2022-12-03T05:11:41.981Z,76.65
2022-12-03T05:14:19.397Z,77.82
2022-12-03T05:16:41.749Z,76.93
2022-12-03T05:19:04.834Z,82.90
2022-12-03T05:23:49.565Z,74.88
2022-12-03T05:26:11.949Z,75.32
2022-12-03T05:28:34.253Z,79.43
2022-12-03T05:30:56.543Z,74.03
2022-12-03T05:33:18.961Z,81.78
2022-12-03T05:35:41.243Z,75.88
2022-12-03T05:38:03.533Z,81.93
2022-12-03T05:40:25.970Z,81.60
2022-12-03T05:42:54.485Z,77.32
2022-12-03T05:45:16.829Z,81.30
2022-12-03T05:47:39.157Z,80.72
2022-12-03T05:50:01.448Z,91.85
2022-12-03T05:52:23.769Z,81.30
2022-12-03T05:54:46.041Z,88.60
2022-12-03T05:57:08.351Z,80.68
2022-12-03T05:59:30.617Z,84.53
2022-12-03T06:01:52.906Z,83.07
2022-12-03T06:04:15.219Z,88.32
2022-12-03T06:06:37.511Z,89.60
2022-12-03T06:08:59.790Z,89.70
2022-12-03T06:11:22.119Z,84.07
2022-12-03T06:13:44.382Z,97.18
2022-12-03T06:16:06.831Z,84.07
2022-12-03T06:18:29.439Z,93.78
2022-12-03T06:20:51.744Z,86.03
2022-12-03T06:23:14.061Z,81.22
2022-12-03T06:25:36.391Z,85.47
2022-12-03T06:27:58.678Z,92.18
2022-12-03T06:30:20.994Z,83.88
2022-12-03T06:32:43.292Z,91.43
2022-12-03T06:35:05.895Z,92.03
2022-12-03T06:37:28.201Z,85.50
2022-12-03T06:39:50.476Z,95.03
2022-12-03T06:42:12.825Z,98.03
2022-12-03T06:44:35.133Z,92.55
2022-12-03T06:46:57.480Z,104.68
2022-12-03T06:49:19.849Z,97.70
2022-12-03T06:51:42.186Z,94.70
2022-12-03T06:54:05.027Z,97.68
2022-12-03T06:56:32.843Z,97.75
2022-12-03T06:58:57.509Z,90.88
2022-12-03T07:01:20.330Z,96.00
2022-12-03T07:03:42.662Z,91.70
2022-12-03T07:06:05.126Z,100.40
2022-12-03T07:08:28.001Z,94.78
2022-12-03T07:10:50.338Z,94.25
2022-12-03T07:13:12.641Z,96.18
2022-12-03T07:15:34.947Z,99.97
2022-12-03T07:17:57.227Z,99.93
2022-12-03T07:20:19.957Z,99.38
2022-12-03T07:22:42.372Z,90.45
2022-12-03T07:25:05.879Z,93.35
2022-12-03T07:27:28.164Z,104.45
2022-12-03T07:29:50.488Z,103.30
2022-12-03T07:32:12.797Z,93.05
2022-12-03T07:34:35.078Z,101.40
2022-12-03T07:36:57.392Z,91.00
2022-12-03T07:39:19.707Z,88.97
2022-12-03T07:41:42.068Z,80.93
2022-12-03T07:44:09.159Z,86.70
2022-12-03T07:46:34.905Z,85.95
2022-12-03T07:48:57.205Z,79.97
2022-12-03T07:51:19.557Z,94.88
2022-12-03T07:53:42.121Z,80.05
2022-12-03T07:56:05.327Z,83.57
2022-12-03T07:58:27.606Z,82.22
2022-12-03T08:00:49.957Z,85.18
2022-12-03T08:03:12.267Z,80.22
2022-12-03T08:05:34.566Z,91.13
2022-12-03T08:07:57.163Z,88.70
2022-12-03T08:10:19.578Z,86.75
2022-12-03T08:12:41.988Z,79.57
2022-12-03T08:15:19.754Z,87.40
2022-12-03T08:17:42.537Z,84.32
2022-12-03T08:20:19.889Z,94.28
2022-12-03T08:22:43.371Z,89.25
2022-12-03T08:25:21.669Z,88.72
2022-12-03T08:27:43.982Z,84.53
2022-12-03T08:30:14.913Z,85.90
2022-12-03T08:32:37.185Z,83.28
2022-12-03T08:34:59.483Z,92.63
2022-12-03T08:37:21.830Z,84.40
2022-12-03T08:39:46.729Z,89.25
2022-12-03T08:42:37.957Z,92.65
2022-12-03T08:45:39.571Z,94.50
2022-12-03T08:48:40.707Z,87.05
2022-12-03T08:51:25.337Z,85.80
2022-12-03T08:53:54.290Z,90.82
2022-12-03T08:56:29.485Z,96.75
2022-12-03T08:59:18.648Z,88.95
2022-12-03T09:01:46.393Z,100.72
2022-12-03T09:04:38.456Z,89.45
2022-12-03T09:06:41.586Z,92.00
2022-12-03T09:08:45.025Z,96.95
2022-12-03T09:10:47.499Z,96.68
2022-12-03T09:12:49.564Z,103.35
2022-12-03T09:14:55.109Z,91.07
2022-12-03T09:16:57.584Z,93.25
2022-12-03T09:18:59.848Z,98.45
2022-12-03T09:21:02.065Z,87.20
2022-12-03T09:25:46.591Z,86.60
2022-12-03T09:27:49.813Z,96.97
2022-12-03T09:29:51.767Z,99.10
2022-12-03T09:31:53.856Z,97.90
2022-12-03T09:34:01.655Z,96.68
2022-12-03T09:36:03.895Z,100.25
2022-12-03T09:38:06.053Z,89.78
2022-12-03T09:40:10.528Z,89.75
2022-12-03T09:42:12.885Z,86.65
2022-12-03T09:44:18.236Z,85.68
2022-12-03T09:46:21.281Z,79.38
2022-12-03T09:48:23.657Z,86.15
2022-12-03T09:50:42.402Z,87.47
2022-12-03T10:08:58.750Z,87.78
2022-12-03T10:11:24.743Z,87.05
2022-12-03T10:13:47.177Z,88.07
2022-12-03T10:16:16.469Z,92.43
2022-12-03T10:18:41.879Z,81.28
2022-12-03T10:21:16.817Z,87.53
2022-12-03T10:23:44.233Z,91.22
2022-12-03T10:28:54.905Z,83.53
2022-12-03T10:31:17.434Z,87.72
2022-12-03T10:40:19.203Z,94.70
2022-12-03T10:49:27.810Z,90.30
2022-12-03T10:51:50.161Z,83.00
2022-12-03T10:54:19.516Z,95.23
2022-12-03T10:56:41.928Z,84.25
2022-12-03T10:59:04.243Z,96.28
2022-12-03T11:01:26.889Z,93.57
2022-12-03T11:03:55.743Z,87.20
2022-12-03T11:06:22.911Z,86.88
2022-12-03T11:08:53.014Z,75.97
2022-12-03T11:11:25.408Z,78.07
2022-12-03T11:13:58.548Z,76.80
2022-12-03T11:16:39.439Z,83.50
2022-12-03T11:19:02.378Z,76.47
2022-12-03T11:21:25.279Z,83.40
2022-12-03T11:23:47.438Z,77.25
2022-12-03T11:26:14.206Z,78.23
2022-12-03T11:28:58.761Z,79.13
2022-12-03T11:31:43.902Z,83.15
2022-12-03T11:34:18.536Z,80.22
2022-12-03T11:37:09.849Z,80.40
2022-12-03T11:39:53.387Z,74.65
2022-12-03T11:45:04.584Z,87.82
2022-12-03T11:47:27.004Z,83.75
2022-12-03T11:49:49.345Z,90.70
2022-12-03T11:52:33.109Z,82.60
2022-12-03T11:55:12.556Z,86.07
2022-12-03T11:57:38.377Z,84.32
2022-12-03T12:00:08.944Z,84.53
2022-12-03T12:02:31.273Z,86.85
2022-12-03T12:04:53.568Z,87.38
2022-12-03T12:07:35.289Z,89.38
2022-12-03T12:09:58.069Z,88.47
2022-12-03T12:12:32.012Z,92.25
2022-12-03T12:14:54.368Z,90.72
2022-12-03T12:17:49.105Z,85.00
2022-12-03T12:20:13.136Z,87.63
2022-12-03T12:22:35.469Z,86.82
2022-12-03T12:25:02.559Z,87.47
2022-12-03T12:27:36.196Z,96.53
2022-12-03T12:30:03.087Z,87.13
2022-12-03T12:32:50.509Z,97.32
2022-12-03T12:35:17.263Z,97.78
2022-12-03T12:37:59.117Z,86.30
2022-12-03T12:40:26.849Z,93.70
2022-12-03T12:42:57.977Z,90.18
2022-12-03T12:45:23.282Z,84.78
2022-12-03T12:47:50.050Z,88.15
2022-12-03T12:50:13.442Z,90.93
2022-12-03T12:52:35.742Z,90.30
2022-12-03T12:55:03.033Z,89.43
2022-12-03T12:57:27.097Z,97.63
2022-12-03T12:59:50.376Z,93.33
2022-12-03T13:04:39.679Z,97.18
2022-12-03T13:06:42.145Z,93.93
2022-12-03T13:08:46.543Z,92.05
2022-12-03T13:10:48.863Z,95.22
2022-12-03T13:12:51.186Z,96.45
2022-12-03T13:14:53.463Z,97.20
2022-12-03T13:16:56.001Z,92.13
2022-12-03T13:18:59.141Z,83.90
2022-12-03T13:21:40.057Z,94.55
2022-12-03T13:23:42.426Z,93.32
2022-12-03T13:26:07.122Z,97.68
2022-12-03T13:28:07.718Z,97.10
2022-12-03T13:32:22.767Z,87.85
2022-12-03T13:34:27.769Z,83.47
2022-12-03T13:36:42.547Z,97.97
2022-12-03T13:38:44.663Z,94.25
2022-12-03T13:40:46.813Z,91.45
2022-12-03T13:42:49.175Z,95.32
2022-12-03T13:44:51.295Z,93.60
2022-12-03T13:46:53.572Z,101.80
2022-12-03T13:49:00.324Z,98.78
2022-12-03T13:51:33.551Z,96.30
2022-12-03T13:53:37.645Z,96.90
2022-12-03T13:55:43.922Z,94.13
2022-12-03T13:57:46.542Z,103.78
2022-12-03T13:59:48.660Z,102.72
2022-12-03T14:01:50.742Z,103.82
2022-12-03T14:03:53.615Z,100.80
2022-12-03T14:08:01.750Z,98.88
2022-12-03T14:10:06.777Z,100.75
2022-12-03T14:12:27.390Z,91.35
2022-12-03T14:14:30.109Z,100.32
2022-12-03T14:18:35.383Z,109.13
2022-12-03T14:20:37.476Z,104.63
2022-12-03T14:22:40.207Z,102.97
2022-12-03T14:24:42.804Z,106.75
2022-12-03T14:26:45.565Z,102.32
2022-12-03T14:28:47.968Z,102.00
2022-12-03T14:32:53.197Z,103.85
2022-12-03T14:36:58.866Z,98.47
2022-12-03T14:39:02.800Z,98.75
2022-12-03T14:41:25.395Z,95.22
2022-12-03T14:43:28.267Z,97.88
2022-12-03T14:45:30.914Z,103.93
2022-12-03T14:47:33.638Z,99.78
2022-12-03T14:51:39.060Z,102.60
2022-12-03T14:53:44.008Z,102.25
2022-12-03T14:55:48.126Z,107.85
2022-12-03T14:57:50.768Z,100.28
2022-12-03T14:59:53.697Z,99.55
2022-12-03T15:01:57.113Z,99.53
2022-12-03T15:04:00.485Z,92.97
2022-12-03T15:06:03.216Z,93.88
2022-12-03T15:08:05.725Z,102.93
2022-12-03T15:10:08.826Z,94.03
2022-12-03T15:12:11.450Z,97.45
2022-12-03T15:14:13.863Z,100.65
2022-12-03T15:16:16.225Z,96.40
2022-12-03T15:18:19.490Z,99.45
2022-12-03T15:20:21.859Z,102.45
2022-12-03T15:22:24.293Z,98.70
2022-12-03T15:24:43.323Z,99.90
2022-12-03T15:26:46.394Z,105.30
2022-12-03T15:28:49.477Z,99.93
2022-12-03T15:30:53.676Z,100.85
2022-12-03T15:32:56.891Z,93.25
2022-12-03T15:34:59.189Z,93.20
2022-12-03T15:37:02.241Z,99.47
2022-12-03T15:39:04.750Z,95.95
2022-12-03T15:41:24.649Z,99.03
2022-12-03T15:43:26.695Z,92.18
2022-12-03T15:45:31.078Z,88.90
2022-12-03T15:47:51.702Z,89.60
2022-12-03T15:50:13.867Z,92.40
2022-12-03T15:52:40.122Z,91.18
2022-12-03T16:02:21.092Z,100.50
2022-12-03T16:05:02.532Z,103.72
2022-12-03T16:07:31.885Z,105.72
2022-12-03T16:09:58.233Z,96.30
2022-12-03T16:12:22.024Z,95.10
2022-12-03T16:14:44.422Z,98.97
2022-12-03T16:17:06.844Z,96.82
2022-12-03T16:19:29.249Z,96.13
2022-12-03T16:21:51.551Z,96.60
2022-12-03T16:24:13.870Z,97.13
2022-12-03T16:26:37.541Z,92.75
2022-12-03T16:28:59.877Z,98.40
2022-12-03T16:31:22.347Z,97.78
2022-12-03T16:33:49.011Z,99.13
2022-12-03T16:36:12.476Z,94.65
2022-12-03T16:38:35.043Z,97.65
2022-12-03T16:40:57.333Z,102.55
2022-12-03T16:43:24.283Z,92.32
2022-12-03T16:46:02.125Z,95.15
2022-12-03T16:48:25.888Z,107.78
2022-12-03T16:50:49.614Z,96.88
2022-12-03T16:53:12.955Z,96.18
2022-12-03T16:55:37.536Z,92.45
2022-12-03T16:58:04.516Z,96.45
2022-12-03T17:00:31.434Z,93.80
2022-12-03T17:02:53.850Z,92.55
2022-12-03T17:05:16.505Z,97.78
2022-12-03T17:07:42.532Z,99.22
2022-12-03T17:10:06.204Z,97.03
2022-12-03T17:12:42.256Z,98.60
2022-12-03T17:15:12.436Z,102.70
2022-12-03T17:17:35.237Z,104.55
2022-12-03T17:19:57.849Z,102.93
2022-12-03T17:22:20.187Z,96.22
2022-12-03T17:24:42.565Z,97.32
2022-12-03T17:27:06.340Z,97.60
2022-12-03T17:29:29.020Z,102.93
2022-12-03T17:31:51.428Z,96.55
2022-12-03T17:34:13.846Z,92.22
2022-12-03T17:36:36.128Z,103.88
2022-12-03T17:38:59.723Z,114.40
2022-12-03T17:41:28.589Z,105.60
2022-12-03T17:43:51.011Z,96.22
2022-12-03T17:46:13.397Z,105.47
2022-12-03T17:48:35.934Z,106.45
2022-12-03T17:50:58.708Z,115.63
2022-12-03T17:58:51.367Z,110.43
2022-12-03T18:01:14.214Z,109.25
2022-12-03T18:03:37.108Z,96.95
2022-12-03T18:05:59.992Z,98.47
2022-12-03T18:08:22.381Z,100.47
2022-12-03T18:10:44.695Z,99.60
2022-12-03T18:13:07.054Z,108.20
2022-12-03T18:15:30.063Z,104.07
2022-12-03T18:17:52.752Z,102.25
2022-12-03T18:20:15.119Z,101.47
2022-12-03T18:22:37.476Z,89.32
2022-12-03T18:24:59.873Z,95.63
2022-12-03T18:27:22.401Z,97.35
2022-12-03T18:29:45.327Z,98.00
2022-12-03T18:32:27.133Z,107.95
2022-12-03T18:34:50.932Z,100.28
2022-12-03T18:37:15.967Z,98.95
2022-12-03T18:39:38.436Z,102.53
2022-12-03T18:42:09.705Z,104.47
2022-12-03T18:44:32.103Z,105.95
2022-12-03T18:46:55.041Z,109.85
2022-12-03T18:51:48.464Z,99.18
2022-12-03T18:54:14.822Z,107.30
2022-12-03T18:56:37.296Z,104.13
2022-12-03T18:58:59.903Z,100.28
2022-12-03T19:01:22.871Z,103.82
2022-12-03T19:06:20.746Z,99.32
2022-12-03T19:08:43.689Z,103.30
2022-12-03T19:11:06.208Z,102.03
2022-12-03T19:13:28.632Z,103.72
2022-12-03T19:33:01.940Z,112.10
2022-12-03T19:35:24.366Z,102.75
2022-12-03T19:37:48.068Z,108.20
2022-12-03T19:40:10.956Z,106.07
2022-12-03T19:42:36.215Z,113.32
2022-12-03T19:44:58.506Z,108.47
2022-12-03T19:47:24.720Z,115.85
2022-12-03T19:49:52.466Z,107.45
2022-12-03T19:52:15.010Z,116.05
2022-12-03T19:54:37.343Z,117.28
2022-12-03T19:56:39.483Z,114.13
2022-12-03T19:58:42.090Z,103.97
2022-12-03T20:00:44.513Z,117.50
2022-12-03T20:02:50.146Z,119.25
2022-12-03T20:04:52.524Z,113.97
2022-12-03T20:06:54.611Z,113.70
2022-12-03T20:09:04.287Z,116.10
2022-12-03T20:11:14.989Z,115.10
2022-12-03T20:13:17.236Z,118.45
2022-12-03T20:15:20.613Z,118.43
2022-12-03T20:17:22.703Z,118.18
2022-12-03T20:19:25.041Z,116.57
2022-12-03T20:21:28.789Z,112.63
2022-12-03T20:23:30.948Z,116.35
2022-12-03T20:25:37.025Z,115.22
2022-12-03T20:27:39.543Z,129.27
2022-12-03T20:29:41.858Z,116.57
2022-12-03T20:31:44.423Z,120.75
2022-12-03T20:35:54.645Z,120.90
2022-12-03T20:37:57.024Z,122.28
2022-12-03T20:39:59.375Z,117.97
2022-12-03T20:42:01.797Z,120.82
2022-12-03T20:44:06.344Z,122.95
2022-12-03T20:46:26.543Z,121.00
2022-12-03T20:48:28.769Z,116.53
2022-12-03T20:50:31.090Z,121.28
2022-12-03T20:52:33.263Z,122.32
2022-12-03T20:54:35.860Z,123.82
2022-12-03T20:56:39.581Z,115.95
2022-12-03T20:58:41.925Z,127.75
2022-12-03T21:00:44.089Z,127.32
2022-12-03T21:02:46.746Z,120.97
2022-12-03T21:04:49.220Z,124.47
2022-12-03T21:06:51.615Z,121.93
2022-12-03T21:08:54.521Z,122.68
2022-12-03T21:10:56.956Z,135.20
2022-12-03T21:12:59.595Z,136.38
2022-12-03T21:15:02.024Z,121.93
2022-12-03T21:17:09.184Z,138.65
2022-12-03T21:19:11.963Z,126.50
2022-12-03T21:21:15.970Z,120.95
2022-12-03T21:23:18.237Z,118.90
2022-12-03T21:25:20.269Z,129.32
2022-12-03T21:27:22.604Z,124.82
2022-12-03T21:29:24.943Z,133.07
2022-12-03T21:31:27.527Z,137.63
2022-12-03T21:33:30.223Z,132.10
2022-12-03T21:35:32.606Z,136.15
2022-12-03T21:37:35.009Z,128.27
2022-12-03T21:39:37.488Z,134.48
2022-12-03T21:43:42.681Z,131.93
2022-12-03T21:45:45.252Z,149.90
2022-12-03T21:47:48.546Z,151.63
2022-12-03T21:49:50.995Z,143.13
2022-12-03T21:51:53.117Z,159.30
2022-12-03T21:53:55.391Z,151.13
2022-12-03T21:55:58.193Z,143.38
2022-12-03T22:00:07.783Z,158.70
2022-12-03T22:02:10.790Z,144.55
2022-12-03T22:04:13.332Z,155.18
2022-12-03T22:08:18.595Z,150.57
2022-12-03T22:10:20.789Z,161.32
2022-12-03T22:12:22.958Z,148.32
2022-12-03T22:14:25.082Z,162.75
2022-12-03T22:16:27.207Z,159.07
2022-12-03T22:18:29.346Z,161.27
2022-12-03T22:20:31.385Z,150.38
2022-12-03T22:22:33.515Z,154.80
2022-12-03T22:24:35.535Z,161.60
2022-12-03T22:26:37.549Z,169.63
2022-12-03T22:28:57.996Z,164.88
2022-12-03T22:31:18.716Z,159.40
2022-12-03T22:33:41.399Z,160.02
2022-12-03T22:36:14.859Z,167.27
2022-12-03T22:38:42.244Z,159.65
2022-12-03T22:41:08.841Z,160.63
2022-12-03T22:43:31.141Z,153.80
2022-12-03T22:45:54.867Z,144.30
2022-12-03T22:48:17.245Z,154.20
2022-12-03T22:50:46.061Z,169.53
2022-12-03T22:53:08.424Z,159.45
2022-12-03T22:55:30.744Z,168.75
2022-12-03T22:57:53.042Z,164.23
2022-12-03T23:00:26.744Z,153.52
2022-12-03T23:02:49.125Z,168.27
2022-12-03T23:05:11.490Z,153.63
2022-12-03T23:07:33.871Z,151.95
2022-12-03T23:09:56.433Z,158.57
2022-12-03T23:12:18.959Z,153.35
2022-12-03T23:14:41.247Z,147.80
2022-12-03T23:17:03.721Z,162.90
2022-12-03T23:19:26.062Z,160.90
2022-12-03T23:21:48.374Z,144.73
2022-12-03T23:24:10.687Z,149.43
2022-12-03T23:26:37.456Z,148.27
2022-12-03T23:28:59.758Z,144.73
2022-12-03T23:31:29.865Z,148.47
2022-12-03T23:33:52.642Z,149.93
2022-12-03T23:36:15.174Z,145.98
2022-12-03T23:38:37.673Z,142.70
2022-12-03T23:41:08.662Z,156.77
2022-12-03T23:43:31.086Z,144.73
2022-12-03T23:45:53.375Z,153.43
2022-12-03T23:48:15.767Z,148.30
2022-12-03T23:50:41.437Z,139.43
2022-12-03T23:53:03.787Z,142.93
2022-12-03T23:55:26.375Z,142.87
2022-12-03T23:57:48.732Z,144.23
